createdAt,value
2018-10-04T00:02:39.426Z,9.70
2018-10-04T00:12:42.689Z,9.50
2018-10-04T00:22:46.852Z,9.40
2018-10-04T00:32:50.100Z,9.20
2018-10-04T00:42:53.340Z,9.20
2018-10-04T00:52:56.537Z,9.10
2018-10-04T01:02:59.739Z,9.00
2018-10-04T01:13:03.004Z,9.00
2018-10-04T01:23:06.549Z,9.00
2018-10-04T01:33:09.759Z,9.00
2018-10-04T01:43:12.979Z,8.80
2018-10-04T01:53:16.283Z,8.80
2018-10-04T02:03:19.532Z,8.70
2018-10-04T02:13:23.047Z,8.70
2018-10-04T02:23:26.342Z,8.60
2018-10-04T02:33:29.504Z,8.60
2018-10-04T02:43:32.712Z,8.50
2018-10-04T02:53:35.932Z,8.50
2018-10-04T03:03:39.701Z,8.40
2018-10-04T03:13:42.931Z,8.20
2018-10-04T03:23:46.157Z,8.20
2018-10-04T03:33:49.370Z,8.20
2018-10-04T03:43:52.571Z,8.10
2018-10-04T03:53:55.785Z,8.10
2018-10-04T04:03:59.028Z,8.10
2018-10-04T04:14:02.262Z,8.00
2018-10-04T04:24:05.528Z,8.00
2018-10-04T04:34:09.009Z,7.90
2018-10-04T04:44:12.228Z,8.00
2018-10-04T04:54:29.409Z,7.80
2018-10-04T05:04:32.598Z,7.90
2018-10-04T05:14:35.855Z,7.90
2018-10-04T05:24:39.157Z,7.90
2018-10-04T05:34:42.367Z,8.10
2018-10-04T05:44:45.644Z,8.00
2018-10-04T05:54:48.877Z,8.10
2018-10-04T06:04:52.152Z,8.20
2018-10-04T06:14:55.420Z,8.30
2018-10-04T06:24:58.578Z,8.30
2018-10-04T06:35:01.887Z,8.40
2018-10-04T06:45:05.361Z,8.40
2018-10-04T06:55:08.804Z,8.50
2018-10-04T07:05:12.570Z,8.60
2018-10-04T07:15:15.908Z,9.00
2018-10-04T07:25:19.144Z,9.20
2018-10-04T07:35:22.399Z,9.60
2018-10-04T07:45:25.718Z,9.60
2018-10-04T07:55:28.949Z,9.90
2018-10-04T08:05:32.336Z,10.20
2018-10-04T08:15:35.960Z,10.50
2018-10-04T08:25:39.204Z,10.80
2018-10-04T08:35:42.560Z,11.10
2018-10-04T08:45:45.805Z,11.60
2018-10-04T08:55:49.046Z,11.90
2018-10-04T09:05:53.176Z,12.10
2018-10-04T09:15:56.417Z,12.50
2018-10-04T09:25:59.656Z,12.90
2018-10-04T09:36:02.911Z,13.30
2018-10-04T09:46:06.352Z,13.70
2018-10-04T09:56:14.895Z,14.00
2018-10-04T10:06:18.272Z,14.30
2018-10-04T10:16:22.021Z,14.60
2018-10-04T10:26:25.293Z,14.90
2018-10-04T10:36:28.657Z,15.00
2018-10-04T10:46:32.085Z,15.30
2018-10-04T10:56:35.292Z,15.50
2018-10-04T11:06:38.688Z,15.60
2018-10-04T11:16:42.116Z,15.80
2018-10-04T11:26:45.731Z,16.10
2018-10-04T11:36:49.040Z,16.40
2018-10-04T11:46:56.014Z,16.70
2018-10-04T11:56:59.380Z,17.00
2018-10-04T12:07:02.792Z,17.30
2018-10-04T12:17:06.392Z,17.70
2018-10-04T12:27:09.719Z,17.80
2018-10-04T12:37:13.055Z,17.90
2018-10-04T12:47:17.344Z,18.00
2018-10-04T12:57:22.072Z,17.90
2018-10-04T13:07:25.374Z,17.90
2018-10-04T13:17:28.632Z,17.90
2018-10-04T13:27:31.905Z,18.00
2018-10-04T13:37:35.143Z,17.90
2018-10-04T13:47:38.389Z,18.00
2018-10-04T13:57:41.614Z,18.00
2018-10-04T14:07:44.860Z,18.00
2018-10-04T14:17:48.133Z,18.10
2018-10-04T14:27:51.361Z,18.20
2018-10-04T14:37:54.604Z,18.40
2018-10-04T14:47:57.830Z,18.70
2018-10-04T14:58:01.054Z,19.60
2018-10-04T15:08:04.325Z,20.10
2018-10-04T15:18:07.617Z,20.60
2018-10-04T15:28:10.884Z,19.30
2018-10-04T15:38:14.449Z,18.60
2018-10-04T15:48:17.832Z,18.20
2018-10-04T15:58:21.267Z,17.90
2018-10-04T16:08:24.877Z,17.60
2018-10-04T16:18:28.197Z,17.40
2018-10-04T16:28:31.495Z,17.20
2018-10-04T16:38:34.836Z,17.00
2018-10-04T16:48:38.253Z,16.70
2018-10-04T16:58:41.544Z,16.50
2018-10-04T17:08:44.932Z,16.20
2018-10-04T17:18:48.267Z,15.90
2018-10-04T17:28:51.728Z,15.60
2018-10-04T17:38:55.482Z,15.40
2018-10-04T17:48:58.923Z,15.10
2018-10-04T17:59:02.252Z,14.80
2018-10-04T18:09:06.240Z,14.70
2018-10-04T18:19:09.556Z,14.50
2018-10-04T18:29:16.469Z,14.30
2018-10-04T18:39:19.996Z,14.10
2018-10-04T18:49:23.671Z,13.90
2018-10-04T18:59:27.265Z,13.80
2018-10-04T19:09:30.673Z,13.60
2018-10-04T19:19:34.280Z,13.40
2018-10-04T19:29:37.529Z,13.30
2018-10-04T19:39:41.037Z,13.10
2018-10-04T19:49:44.252Z,12.90
2018-10-04T19:59:47.537Z,12.70
2018-10-04T20:09:50.920Z,12.70
2018-10-04T20:19:54.069Z,12.60
2018-10-04T20:29:57.336Z,12.30
2018-10-04T20:40:04.429Z,12.20
2018-10-04T20:50:07.693Z,12.10
2018-10-04T21:00:11.033Z,12.00
2018-10-04T21:10:14.400Z,11.60
2018-10-04T21:20:17.748Z,11.60
2018-10-04T21:30:22.318Z,11.50
2018-10-04T21:40:25.550Z,11.40
2018-10-04T21:50:28.878Z,11.30
2018-10-04T22:00:32.528Z,11.30
2018-10-04T22:10:35.852Z,11.20
2018-10-04T22:20:39.163Z,11.10
2018-10-04T22:30:42.448Z,11.00
2018-10-04T22:40:45.724Z,10.80
2018-10-04T22:50:48.974Z,10.80
2018-10-04T23:00:52.249Z,10.70
2018-10-04T23:10:55.564Z,10.60
2018-10-04T23:20:58.901Z,10.50
2018-10-04T23:31:02.195Z,10.60
2018-10-04T23:41:05.556Z,10.60
2018-10-04T23:51:08.844Z,10.40
